createdAt,value
2018-07-15T00:00:51.041Z,65.23
2018-07-15T00:03:20.135Z,64.97
2018-07-15T00:05:49.251Z,64.87
2018-07-15T00:08:18.364Z,65.17
2018-07-15T00:10:47.543Z,65.03
2018-07-15T00:13:16.615Z,64.78
2018-07-15T00:15:45.739Z,65.05
2018-07-15T00:18:14.827Z,64.36
2018-07-15T00:20:43.955Z,65.55
2018-07-15T00:23:13.035Z,65.96
2018-07-15T00:25:42.129Z,65.98
2018-07-15T00:28:11.241Z,66.01
2018-07-15T00:30:40.356Z,66.88
2018-07-15T00:33:09.440Z,66.69
2018-07-15T00:35:38.509Z,66.80
2018-07-15T00:38:07.884Z,67.38
2018-07-15T00:40:36.960Z,66.85
2018-07-15T00:43:06.067Z,67.37
2018-07-15T00:45:35.167Z,66.87
2018-07-15T00:48:04.381Z,67.53
2018-07-15T00:50:33.451Z,68.45
2018-07-15T00:53:02.553Z,68.41
2018-07-15T00:55:31.636Z,68.34
2018-07-15T00:58:00.739Z,67.16
2018-07-15T01:00:35.220Z,67.13
2018-07-15T01:03:04.359Z,67.29
2018-07-15T01:05:33.465Z,67.11
2018-07-15T01:08:02.547Z,67.41
2018-07-15T01:10:31.660Z,67.46
2018-07-15T01:13:00.756Z,67.93
2018-07-15T01:15:29.832Z,67.70
2018-07-15T01:17:58.940Z,67.66
2018-07-15T01:20:28.051Z,67.56
2018-07-15T01:22:57.161Z,67.48
2018-07-15T01:25:26.236Z,66.82
2018-07-15T01:27:55.328Z,67.16
2018-07-15T01:30:24.408Z,67.05
2018-07-15T01:32:53.501Z,68.17
2018-07-15T01:35:22.603Z,67.88
2018-07-15T01:37:51.696Z,68.30
2018-07-15T01:40:20.772Z,68.88
2018-07-15T01:42:49.872Z,68.09
2018-07-15T01:45:18.940Z,68.53
2018-07-15T01:47:48.045Z,69.33
2018-07-15T01:50:17.232Z,68.96
2018-07-15T01:52:46.324Z,69.39
2018-07-15T01:55:15.424Z,68.96
2018-07-15T01:57:44.508Z,69.38
2018-07-15T02:00:13.616Z,69.10
2018-07-15T02:02:42.738Z,68.62
2018-07-15T02:05:11.829Z,68.10
2018-07-15T02:07:40.896Z,67.99
2018-07-15T02:10:10.032Z,68.74
2018-07-15T02:12:39.096Z,68.92
2018-07-15T02:15:08.204Z,68.96
2018-07-15T02:17:37.264Z,68.47
2018-07-15T02:20:06.353Z,68.80
2018-07-15T02:22:35.419Z,68.53
2018-07-15T02:25:04.540Z,68.41
2018-07-15T02:27:33.624Z,67.99
2018-07-15T02:30:02.734Z,68.08
2018-07-15T02:32:31.804Z,68.52
2018-07-15T02:35:00.893Z,69.06
2018-07-15T02:37:29.967Z,69.72
2018-07-15T02:39:59.075Z,69.89
2018-07-15T02:42:28.167Z,69.96
2018-07-15T02:44:57.272Z,70.43
2018-07-15T02:47:26.344Z,70.12
2018-07-15T02:49:55.436Z,68.47
2018-07-15T02:52:24.594Z,68.50
2018-07-15T02:54:53.631Z,67.84
2018-07-15T02:57:22.716Z,67.27
2018-07-15T02:59:51.819Z,68.10
2018-07-15T03:02:20.920Z,68.16
2018-07-15T03:04:49.992Z,68.76
2018-07-15T03:07:19.085Z,69.22
2018-07-15T03:09:48.157Z,69.62
2018-07-15T03:12:17.252Z,70.11
2018-07-15T03:14:46.333Z,70.83
2018-07-15T03:17:15.516Z,71.02
2018-07-15T03:19:44.533Z,71.02
2018-07-15T03:22:13.624Z,71.39
2018-07-15T03:24:42.716Z,71.26
2018-07-15T03:27:11.829Z,71.24
2018-07-15T03:29:40.944Z,71.11
2018-07-15T03:32:10.065Z,71.50
2018-07-15T03:34:39.160Z,71.83
2018-07-15T03:37:08.296Z,72.25
2018-07-15T03:39:37.392Z,71.79
2018-07-15T03:42:06.760Z,71.78
2018-07-15T03:44:35.844Z,70.84
2018-07-15T03:47:05.099Z,71.54
2018-07-15T03:49:34.176Z,71.15
2018-07-15T03:52:03.289Z,70.91
2018-07-15T03:54:33.267Z,70.43
2018-07-15T03:57:02.396Z,70.01
2018-07-15T03:59:31.484Z,70.67
2018-07-15T04:02:00.723Z,70.80
2018-07-15T04:04:29.812Z,71.14
2018-07-15T04:06:58.949Z,71.09
2018-07-15T04:09:28.060Z,71.66
2018-07-15T04:11:57.158Z,71.67
2018-07-15T04:14:26.310Z,71.76
2018-07-15T04:16:55.435Z,71.77
2018-07-15T04:19:24.543Z,71.69
2018-07-15T04:21:53.648Z,71.51
2018-07-15T04:24:22.757Z,72.32
2018-07-15T04:26:51.896Z,72.41
2018-07-15T04:29:21.020Z,72.07
2018-07-15T04:31:50.171Z,72.23
2018-07-15T04:34:19.286Z,71.87
2018-07-15T04:36:48.407Z,71.95
2018-07-15T04:39:17.652Z,72.20
2018-07-15T04:41:46.736Z,72.52
2018-07-15T04:44:15.863Z,72.11
2018-07-15T04:46:44.949Z,71.96
2018-07-15T04:49:14.120Z,71.79
2018-07-15T04:51:43.611Z,71.22
2018-07-15T04:54:12.732Z,72.32
2018-07-15T04:56:42.740Z,72.02
2018-07-15T04:59:11.879Z,71.42
2018-07-15T05:01:43.680Z,71.26
2018-07-15T05:04:14.009Z,70.70
2018-07-15T05:06:43.704Z,70.62
2018-07-15T05:09:13.392Z,69.77
2018-07-15T05:11:42.485Z,70.23
2018-07-15T05:14:11.568Z,69.39
2018-07-15T05:16:40.684Z,69.25
2018-07-15T05:19:09.792Z,69.79
2018-07-15T05:21:38.910Z,69.19
2018-07-15T05:24:08.033Z,70.36
2018-07-15T05:26:37.135Z,69.85
2018-07-15T05:29:06.236Z,70.37
2018-07-15T05:31:35.344Z,70.33
2018-07-15T05:34:04.429Z,69.32
2018-07-15T05:36:33.548Z,69.85
2018-07-15T05:39:02.660Z,69.96
2018-07-15T05:41:31.766Z,69.54
2018-07-15T05:44:00.877Z,68.99
2018-07-15T05:46:30.025Z,69.00
2018-07-15T05:48:59.136Z,69.80
2018-07-15T05:51:28.248Z,68.81
2018-07-15T05:53:57.364Z,68.41
2018-07-15T05:56:26.465Z,68.34
2018-07-15T05:58:55.588Z,67.13
2018-07-15T06:01:25.022Z,67.88
2018-07-15T06:03:54.145Z,67.26
2018-07-15T06:06:23.254Z,66.10
2018-07-15T06:08:52.328Z,64.80
2018-07-15T06:11:21.443Z,64.55
2018-07-15T06:13:50.574Z,65.19
2018-07-15T06:16:19.683Z,64.08
2018-07-15T06:18:48.793Z,62.48
2018-07-15T06:21:17.892Z,62.00
2018-07-15T06:23:46.992Z,62.14
2018-07-15T06:26:16.149Z,62.45
2018-07-15T06:28:45.256Z,60.93
2018-07-15T06:31:14.356Z,61.47
2018-07-15T06:33:43.484Z,61.56
2018-07-15T06:36:12.567Z,62.61
2018-07-15T06:38:41.681Z,62.00
2018-07-15T06:41:10.787Z,61.34
2018-07-15T06:43:39.955Z,61.57
2018-07-15T06:46:10.008Z,62.25
2018-07-15T06:48:39.120Z,61.93
2018-07-15T06:51:08.223Z,61.55
2018-07-15T06:53:37.329Z,61.25
2018-07-15T06:56:06.462Z,60.93
2018-07-15T06:58:36.444Z,60.03
2018-07-15T07:01:05.520Z,58.93
2018-07-15T07:03:34.637Z,59.12
2018-07-15T07:06:03.732Z,60.73
2018-07-15T07:08:32.849Z,60.66
2018-07-15T07:11:01.930Z,60.54
2018-07-15T07:13:31.045Z,61.39
2018-07-15T07:16:00.121Z,59.46
2018-07-15T07:18:29.235Z,59.12
2018-07-15T07:20:58.325Z,59.11
2018-07-15T07:23:27.433Z,58.29
2018-07-15T07:25:56.547Z,57.98
2018-07-15T07:28:25.767Z,58.11
2018-07-15T07:30:54.860Z,57.39
2018-07-15T07:33:24.032Z,56.98
2018-07-15T07:35:53.121Z,56.01
2018-07-15T07:38:22.248Z,55.31
2018-07-15T07:40:51.372Z,56.43
2018-07-15T07:43:20.428Z,55.65
2018-07-15T07:45:49.516Z,55.53
2018-07-15T07:48:18.588Z,54.08
2018-07-15T07:50:47.715Z,54.13
2018-07-15T07:53:16.795Z,55.24
2018-07-15T07:55:45.872Z,54.51
2018-07-15T07:58:14.961Z,54.10
2018-07-15T08:00:44.075Z,53.82
2018-07-15T08:03:13.153Z,54.64
2018-07-15T08:05:42.236Z,55.00
2018-07-15T08:08:11.312Z,53.14
2018-07-15T08:10:40.428Z,53.01
2018-07-15T08:13:09.532Z,53.27
2018-07-15T08:15:38.617Z,52.87
2018-07-15T08:18:07.689Z,52.65
2018-07-15T08:20:36.789Z,50.74
2018-07-15T08:23:06.596Z,51.29
2018-07-15T08:25:35.701Z,51.65
2018-07-15T08:28:04.829Z,52.17
2018-07-15T08:30:45.386Z,50.68
2018-07-15T08:33:14.495Z,50.15
2018-07-15T08:35:43.588Z,50.31
2018-07-15T08:38:12.657Z,50.75
2018-07-15T08:40:41.833Z,50.38
2018-07-15T08:43:10.864Z,49.84
2018-07-15T08:45:39.984Z,50.29
2018-07-15T08:48:09.065Z,48.61
2018-07-15T08:50:38.200Z,49.29
2018-07-15T08:53:07.276Z,47.93
2018-07-15T08:55:36.505Z,47.98
2018-07-15T08:58:06.020Z,48.42
2018-07-15T09:00:35.112Z,47.76
2018-07-15T09:03:04.213Z,48.15
2018-07-15T09:05:33.279Z,47.37
2018-07-15T09:08:02.393Z,47.69
2018-07-15T09:10:32.432Z,48.46
2018-07-15T09:13:01.603Z,48.91
2018-07-15T09:15:30.839Z,48.42
2018-07-15T09:18:00.157Z,47.26
2018-07-15T09:28:55.496Z,47.74
2018-07-15T09:31:25.169Z,47.02
2018-07-15T09:33:54.380Z,47.75
2018-07-15T09:36:23.599Z,46.72
2018-07-15T09:38:52.951Z,47.45
2018-07-15T09:41:22.208Z,48.06
2018-07-15T09:43:51.505Z,47.61
2018-07-15T09:46:21.381Z,47.07
2018-07-15T09:48:50.673Z,47.99
2018-07-15T09:51:19.897Z,47.77
2018-07-15T09:53:49.087Z,47.44
2018-07-15T09:56:18.253Z,47.94
2018-07-15T09:58:47.840Z,46.88
2018-07-15T10:01:17.109Z,47.64
2018-07-15T10:03:46.332Z,46.60
2018-07-15T10:06:15.665Z,46.45
2018-07-15T10:08:44.884Z,47.34
2018-07-15T10:11:14.504Z,46.28
2018-07-15T10:13:43.613Z,45.60
2018-07-15T10:16:12.773Z,46.17
2018-07-15T10:18:41.869Z,45.80
2018-07-15T10:21:10.960Z,45.98
2018-07-15T10:23:40.078Z,46.51
2018-07-15T10:26:09.144Z,45.25
2018-07-15T10:28:38.276Z,45.65
2018-07-15T10:31:07.410Z,45.15
2018-07-15T10:33:36.491Z,45.25
2018-07-15T10:36:05.594Z,44.38
2018-07-15T10:38:34.672Z,45.14
2018-07-15T10:41:03.769Z,44.19
2018-07-15T10:43:32.876Z,45.22
2018-07-15T10:46:02.019Z,44.09
2018-07-15T10:48:32.155Z,45.21
2018-07-15T10:51:01.304Z,45.50
2018-07-15T10:53:30.577Z,44.72
2018-07-15T10:55:59.850Z,44.65
2018-07-15T10:58:29.168Z,44.36
2018-07-15T11:00:58.388Z,44.65
2018-07-15T11:03:27.600Z,44.64
2018-07-15T11:05:56.865Z,43.87
2018-07-15T11:08:26.316Z,44.80
2018-07-15T11:10:55.557Z,44.46
2018-07-15T11:13:24.960Z,43.79
2018-07-15T11:15:54.085Z,41.90
2018-07-15T11:18:23.370Z,42.58
2018-07-15T11:20:52.507Z,41.29
2018-07-15T11:23:21.796Z,41.89
2018-07-15T11:25:51.136Z,42.20
2018-07-15T11:28:20.263Z,42.13
2018-07-15T11:30:49.482Z,39.71
2018-07-15T11:33:19.008Z,41.54
2018-07-15T11:35:48.332Z,42.32
2018-07-15T11:38:17.805Z,41.61
2018-07-15T11:40:47.153Z,41.82
2018-07-15T11:43:16.626Z,42.23
2018-07-15T11:45:45.729Z,40.49
2018-07-15T11:48:14.907Z,41.02
2018-07-15T11:50:43.960Z,39.57
2018-07-15T11:53:13.055Z,39.97
2018-07-15T11:55:42.387Z,40.84
2018-07-15T11:58:11.830Z,40.69
2018-07-15T12:00:41.182Z,41.44
2018-07-15T12:03:10.369Z,40.11
2018-07-15T12:05:39.584Z,40.34
2018-07-15T12:08:08.665Z,41.25
2018-07-15T12:10:38.097Z,40.29
2018-07-15T12:13:07.355Z,41.30
2018-07-15T12:15:37.388Z,40.32
2018-07-15T12:18:06.729Z,41.69
2018-07-15T12:20:36.110Z,41.20
2018-07-15T12:23:05.492Z,40.78
2018-07-15T12:25:34.935Z,42.61
2018-07-15T12:28:04.216Z,40.89
2018-07-15T12:30:33.446Z,39.82
2018-07-15T12:33:02.629Z,40.09
2018-07-15T12:35:31.813Z,40.50
2018-07-15T12:38:01.697Z,41.29
2018-07-15T12:40:31.870Z,39.54
2018-07-15T12:43:01.988Z,39.88
2018-07-15T12:45:31.173Z,39.51
2018-07-15T12:48:00.416Z,40.10
2018-07-15T12:50:29.569Z,39.63
2018-07-15T12:52:59.037Z,39.56
2018-07-15T12:55:28.193Z,39.62
2018-07-15T12:57:57.426Z,40.28
2018-07-15T13:00:26.665Z,39.87
2018-07-15T13:02:56.172Z,39.43
2018-07-15T13:05:25.438Z,39.22
2018-07-15T13:07:54.638Z,37.92
2018-07-15T13:10:23.867Z,38.88
2018-07-15T13:12:53.115Z,36.59
2018-07-15T13:15:22.378Z,38.07
2018-07-15T13:17:51.497Z,39.37
2018-07-15T13:20:20.749Z,38.18
2018-07-15T13:22:49.995Z,38.95
2018-07-15T13:25:19.188Z,37.73
2018-07-15T13:27:48.331Z,37.59
2018-07-15T13:30:17.711Z,38.03
2018-07-15T13:32:46.932Z,37.24
2018-07-15T13:35:16.030Z,37.86
2018-07-15T13:37:45.172Z,37.47
2018-07-15T13:40:14.245Z,37.10
2018-07-15T13:42:43.391Z,37.81
2018-07-15T13:45:12.461Z,35.97
2018-07-15T13:47:42.201Z,35.94
2018-07-15T13:50:11.287Z,37.53
2018-07-15T13:52:40.392Z,38.03
2018-07-15T13:55:09.716Z,37.31
2018-07-15T13:57:38.880Z,38.29
2018-07-15T14:00:09.061Z,36.64
2018-07-15T14:02:38.412Z,37.19
2018-07-15T14:05:08.066Z,36.30
2018-07-15T14:07:37.216Z,36.75
2018-07-15T14:10:06.466Z,36.74
2018-07-15T14:12:35.783Z,35.62
2018-07-15T14:15:05.313Z,36.38
2018-07-15T14:17:34.420Z,36.41
2018-07-15T14:20:03.733Z,36.35
2018-07-15T14:22:32.898Z,36.18
2018-07-15T14:25:01.993Z,35.51
2018-07-15T14:27:31.116Z,37.04
2018-07-15T14:30:00.319Z,37.05
2018-07-15T14:32:29.476Z,36.77
2018-07-15T14:34:58.748Z,36.71
2018-07-15T14:37:27.837Z,37.20
2018-07-15T14:39:56.955Z,36.42
2018-07-15T14:42:26.032Z,35.04
2018-07-15T14:44:55.145Z,35.55
2018-07-15T14:47:24.248Z,35.09
2018-07-15T14:49:54.551Z,35.33
2018-07-15T14:52:23.668Z,33.75
2018-07-15T14:54:52.828Z,34.64
2018-07-15T14:57:21.940Z,34.98
2018-07-15T14:59:51.125Z,35.57
2018-07-15T15:02:20.253Z,31.74
2018-07-15T15:04:49.392Z,34.18
2018-07-15T15:07:18.484Z,35.90
2018-07-15T15:09:47.595Z,35.73
2018-07-15T15:12:16.704Z,36.35
2018-07-15T15:14:46.060Z,35.73
2018-07-15T15:17:15.261Z,34.99
2018-07-15T15:19:44.347Z,35.94
2018-07-15T15:22:13.639Z,35.37
2018-07-15T15:24:42.745Z,36.86
2018-07-15T15:27:11.939Z,36.06
2018-07-15T15:29:41.021Z,35.76
2018-07-15T15:32:10.182Z,36.11
2018-07-15T15:34:39.269Z,36.56
2018-07-15T15:37:08.480Z,36.47
2018-07-15T15:39:38.084Z,35.71
2018-07-15T15:42:07.248Z,36.34
2018-07-15T15:44:36.303Z,37.22
2018-07-15T15:47:05.397Z,36.27
2018-07-15T15:49:34.485Z,36.38
2018-07-15T15:52:03.719Z,36.74
2018-07-15T15:54:32.800Z,36.97
2018-07-15T15:57:01.925Z,36.33
2018-07-15T15:59:31.125Z,36.52
2018-07-15T16:02:00.392Z,36.69
2018-07-15T16:04:30.151Z,36.31
2018-07-15T16:06:59.492Z,36.86
2018-07-15T16:09:28.890Z,36.65
2018-07-15T16:11:58.269Z,37.18
2018-07-15T16:14:27.484Z,37.38
2018-07-15T16:16:56.688Z,36.53
2018-07-15T16:19:25.802Z,36.66
2018-07-15T16:21:54.896Z,37.47
2018-07-15T16:24:24.009Z,36.92
2018-07-15T16:26:53.109Z,37.20
2018-07-15T16:29:22.217Z,36.89
2018-07-15T16:31:51.316Z,37.40
2018-07-15T16:34:20.428Z,37.98
2018-07-15T16:36:49.720Z,36.66
2018-07-15T16:39:19.048Z,36.50
2018-07-15T16:41:48.261Z,37.00
2018-07-15T16:44:17.547Z,36.84
2018-07-15T16:46:46.672Z,37.37
2018-07-15T16:49:15.849Z,37.31
2018-07-15T16:51:44.949Z,37.16
2018-07-15T16:54:15.097Z,38.43
2018-07-15T16:56:44.203Z,37.96
2018-07-15T16:59:13.341Z,37.25
2018-07-15T17:01:42.483Z,36.94
2018-07-15T17:04:11.602Z,37.16
2018-07-15T17:06:40.829Z,37.24
2018-07-15T17:09:10.284Z,37.82
2018-07-15T17:11:39.596Z,36.98
2018-07-15T17:14:08.953Z,38.01
2018-07-15T17:16:38.162Z,37.93
2018-07-15T17:19:08.186Z,38.08
2018-07-15T17:21:37.298Z,37.79
2018-07-15T17:24:06.428Z,38.04
2018-07-15T17:26:35.501Z,37.45
2018-07-15T17:29:04.615Z,37.81
2018-07-15T17:31:33.780Z,38.34
2018-07-15T17:34:02.856Z,38.62
2018-07-15T17:36:32.098Z,37.80
2018-07-15T17:39:01.376Z,38.50
2018-07-15T17:41:30.940Z,37.36
2018-07-15T17:44:00.006Z,37.93
2018-07-15T17:46:29.105Z,37.94
2018-07-15T17:48:58.180Z,38.35
2018-07-15T17:51:27.304Z,37.94
2018-07-15T17:53:56.413Z,37.73
2018-07-15T17:56:25.512Z,39.08
2018-07-15T17:58:54.695Z,39.23
2018-07-15T18:01:23.901Z,39.47
2018-07-15T18:03:52.991Z,38.53
2018-07-15T18:06:22.240Z,38.33
2018-07-15T18:08:51.308Z,38.49
2018-07-15T18:11:20.483Z,39.16
2018-07-15T18:13:49.639Z,40.11
2018-07-15T18:16:18.960Z,39.17
2018-07-15T18:18:48.091Z,39.61
2018-07-15T18:21:17.231Z,40.09
2018-07-15T18:23:46.344Z,39.57
2018-07-15T18:26:15.523Z,40.41
2018-07-15T18:28:44.643Z,40.33
2018-07-15T18:31:13.799Z,40.58
2018-07-15T18:33:42.952Z,40.79
2018-07-15T18:36:12.154Z,40.29
2018-07-15T18:38:41.452Z,41.22
2018-07-15T18:41:10.629Z,40.55
2018-07-15T18:43:39.837Z,40.95
2018-07-15T18:46:09.088Z,41.06
2018-07-15T18:48:38.218Z,41.81
2018-07-15T18:51:07.336Z,41.46
2018-07-15T18:53:36.636Z,41.46
2018-07-15T18:56:06.007Z,41.79
2018-07-15T18:58:35.305Z,41.60
2018-07-15T19:01:04.490Z,42.18
2018-07-15T19:03:33.720Z,42.62
2018-07-15T19:06:02.980Z,42.50
2018-07-15T19:08:32.157Z,43.11
2018-07-15T19:11:01.319Z,43.55
2018-07-15T19:13:30.518Z,43.71
2018-07-15T19:15:59.685Z,43.61
2018-07-15T19:18:28.832Z,43.97
2018-07-15T19:20:58.933Z,43.74
2018-07-15T19:23:28.124Z,44.62
2018-07-15T19:25:57.262Z,44.56
2018-07-15T19:28:26.468Z,44.31
2018-07-15T19:30:55.591Z,44.78
2018-07-15T19:33:25.785Z,45.23
2018-07-15T19:35:54.932Z,44.71
2018-07-15T19:38:24.064Z,45.23
2018-07-15T19:40:53.184Z,45.70
2018-07-15T19:43:22.348Z,45.49
2018-07-15T19:45:51.481Z,45.79
2018-07-15T19:48:20.618Z,46.71
2018-07-15T19:50:49.696Z,47.01
2018-07-15T19:53:19.072Z,47.92
2018-07-15T19:55:48.229Z,47.50
2018-07-15T19:58:17.460Z,47.17
2018-07-15T20:00:46.652Z,47.24
2018-07-15T20:03:15.938Z,47.60
2018-07-15T20:05:45.108Z,48.51
2018-07-15T20:08:14.288Z,48.41
2018-07-15T20:10:44.152Z,49.11
2018-07-15T20:13:13.365Z,48.79
2018-07-15T20:15:42.458Z,48.85
2018-07-15T20:18:11.532Z,49.39
2018-07-15T20:20:40.649Z,48.86
2018-07-15T20:23:09.745Z,49.04
2018-07-15T20:25:38.929Z,49.47
2018-07-15T20:28:08.225Z,50.16
2018-07-15T20:30:37.571Z,50.09
2018-07-15T20:33:06.992Z,50.50
2018-07-15T20:35:36.283Z,50.30
2018-07-15T20:38:05.515Z,50.87
2018-07-15T20:40:34.641Z,51.15
2018-07-15T20:43:03.847Z,51.28
2018-07-15T20:45:33.299Z,51.02
2018-07-15T20:48:02.457Z,51.57
2018-07-15T20:50:31.803Z,51.81
2018-07-15T20:53:00.842Z,51.44
2018-07-15T20:55:30.010Z,51.64
2018-07-15T20:57:59.257Z,51.78
2018-07-15T21:00:28.428Z,52.30
2018-07-15T21:02:57.867Z,51.82
2018-07-15T21:05:27.029Z,52.00
2018-07-15T21:07:56.135Z,51.91
2018-07-15T21:10:25.220Z,52.01
2018-07-15T21:12:54.353Z,52.14
2018-07-15T21:15:23.463Z,51.92
2018-07-15T21:17:52.576Z,51.92
2018-07-15T21:20:21.727Z,51.62
2018-07-15T21:22:50.820Z,51.94
2018-07-15T21:25:20.068Z,52.38
2018-07-15T21:27:49.259Z,52.62
2018-07-15T21:30:18.348Z,52.98
2018-07-15T21:32:47.479Z,53.01
2018-07-15T21:35:16.573Z,52.46
2018-07-15T21:37:45.666Z,52.67
2018-07-15T21:40:14.736Z,52.87
2018-07-15T21:42:43.849Z,53.43
2018-07-15T21:45:12.912Z,54.03
2018-07-15T21:47:42.004Z,54.15
2018-07-15T21:50:11.117Z,55.00
2018-07-15T21:52:40.217Z,55.13
2018-07-15T21:55:09.284Z,55.45
2018-07-15T21:57:38.427Z,55.92
2018-07-15T22:00:08.217Z,55.95
2018-07-15T22:02:37.357Z,55.75
2018-07-15T22:05:06.449Z,56.18
2018-07-15T22:07:46.956Z,56.32
2018-07-15T22:10:22.552Z,56.46
2018-07-15T22:12:51.671Z,56.78
2018-07-15T22:15:20.749Z,56.41
2018-07-15T22:17:49.845Z,56.46
2018-07-15T22:20:18.916Z,56.65
2018-07-15T22:22:48.005Z,56.94
2018-07-15T22:25:17.102Z,56.96
2018-07-15T22:27:46.216Z,57.27
2018-07-15T22:30:15.305Z,57.32
2018-07-15T22:32:44.439Z,57.00
2018-07-15T22:35:13.538Z,57.32
2018-07-15T22:37:42.720Z,58.02
2018-07-15T22:40:11.835Z,58.37
2018-07-15T22:42:40.918Z,58.59
2018-07-15T22:45:10.021Z,58.65
2018-07-15T22:47:39.093Z,59.57
2018-07-15T22:50:08.353Z,59.68
2018-07-15T22:52:37.428Z,60.05
2018-07-15T22:55:06.607Z,60.55
2018-07-15T22:57:35.708Z,61.40
2018-07-15T23:00:05.486Z,61.62
2018-07-15T23:02:34.564Z,61.25
2018-07-15T23:05:46.648Z,61.19
2018-07-15T23:08:15.717Z,61.18
2018-07-15T23:10:44.820Z,60.71
2018-07-15T23:13:14.326Z,60.68
2018-07-15T23:15:43.754Z,60.61
2018-07-15T23:18:12.837Z,61.02
2018-07-15T23:20:42.649Z,60.57
2018-07-15T23:23:12.132Z,60.45
2018-07-15T23:25:41.224Z,59.90
2018-07-15T23:28:11.246Z,60.87
2018-07-15T23:30:41.059Z,60.68
2018-07-15T23:33:10.536Z,60.42
2018-07-15T23:35:39.689Z,60.61
2018-07-15T23:38:08.716Z,61.33
2018-07-15T23:40:37.855Z,61.58
2018-07-15T23:43:06.921Z,61.35
2018-07-15T23:45:36.668Z,62.07
2018-07-15T23:48:05.843Z,61.57
2018-07-15T23:50:34.932Z,61.83
2018-07-15T23:53:04.005Z,60.98
2018-07-15T23:55:33.111Z,61.56
2018-07-15T23:58:02.241Z,61.52
